Terminal Aerodrome Forecast
Issued by NWS

Home | Current Version | Previous Version | Text Only | Print | Product List | Glossary On
Versions: 1 2 3 4 5 6 7 8 9 10 11 12 13 14 15 16 17 18 19 20 21 22 23 24 25 26 27 28 29 30 31 32 33 34 35
000
FTUS41 KGYX 031731
TAFMHT
TAF
KMHT 031731Z 0318/0418 20012G20KT P6SM SCT050
     FM032300 18006KT P6SM SCT070 BKN200
     FM040800 19005KT P6SM VCSH BKN070
     FM041000 23009KT P6SM SCT080=

USA.gov is the U.S. government's official web portal to all federal, state and local government web resources and services.